Time;durP1;ratioP1;P1;durP2;ratioP2;P2;SDS_P1;SDS_P2;PMS_P1;PMS_P2;Temp;Humidity;BMP_temperature;BMP_pressure;BME280_temperature;BME280_humidity;BME280_pressure;Samples;Min_cycle;Max_cycle;Signal;HPM_P1;HPM_P2
2022/07/22 00:02:11;;;;;;;6.05;4.47;;;;;;;18.25;89.91;99332.14;1735477;82;21259;-80
2022/07/22 00:05:17;;;;;;;8.83;4.20;;;;;;;18.21;89.78;99323.53;1735302;81;21216;-80
2022/07/22 00:08:24;;;;;;;8.05;4.25;;;;;;;18.19;89.79;99320.70;1735973;82;21211;-80
2022/07/22 00:11:31;;;;;;;9.23;4.42;;;;;;;18.16;89.92;99325.34;1735140;81;21227;-80
2022/07/22 00:14:39;;;;;;;7.60;4.58;;;;;;;18.12;89.71;99328.63;1735663;81;21247;-80
2022/07/22 00:17:43;;;;;;;8.95;4.92;;;;;;;18.11;89.69;99330.23;1734842;82;21180;-80
2022/07/22 00:20:50;;;;;;;8.88;4.05;;;;;;;18.11;89.73;99339.41;1735591;81;21204;-80
2022/07/22 00:23:55;;;;;;;7.65;4.70;;;;;;;18.11;89.75;99333.01;1734923;82;21708;-81
2022/07/22 00:27:02;;;;;;;5.35;4.00;;;;;;;18.09;89.73;99329.11;1734886;82;21247;-80
2022/07/22 00:30:08;;;;;;;10.38;4.65;;;;;;;18.06;89.83;99332.92;1735473;81;21172;-81
2022/07/22 00:33:14;;;;;;;6.58;4.33;;;;;;;18.02;90.04;99327.58;1734971;82;21180;-80
2022/07/22 00:36:20;;;;;;;5.45;3.90;;;;;;;17.98;90.32;99324.50;1735244;81;21200;-80
2022/07/22 00:39:26;;;;;;;6.47;4.00;;;;;;;17.95;90.74;99328.30;1736237;81;21160;-81
2022/07/22 00:42:34;;;;;;;14.35;4.78;;;;;;;17.90;91.11;99325.44;1736226;82;21184;-80
2022/07/22 00:45:40;;;;;;;6.60;4.62;;;;;;;17.86;91.62;99327.85;1735298;81;21284;-80
2022/07/22 00:48:46;;;;;;;6.20;4.03;;;;;;;17.80;92.21;99328.85;1736307;82;21717;-80
2022/07/22 00:51:53;;;;;;;6.20;3.85;;;;;;;17.77;92.41;99334.87;1736362;82;21775;-80
2022/07/22 00:54:59;;;;;;;8.13;4.10;;;;;;;17.73;92.84;99331.75;1723664;81;21204;-80
2022/07/22 00:58:05;;;;;;;6.30;4.35;;;;;;;17.72;93.29;99332.81;1736378;82;21160;-79
2022/07/22 01:01:10;;;;;;;10.43;4.28;;;;;;;17.71;93.60;99334.45;1732951;81;21748;-80
2022/07/22 01:04:18;;;;;;;9.83;4.78;;;;;;;17.71;93.75;99338.59;1732423;83;21855;-80
2022/07/22 01:07:24;;;;;;;6.12;4.30;;;;;;;17.72;93.82;99336.12;1718904;83;21169;-80
2022/07/22 01:10:31;;;;;;;8.33;4.70;;;;;;;17.74;93.83;99340.91;1732759;81;21815;-80
2022/07/22 01:13:37;;;;;;;9.68;4.50;;;;;;;17.74;93.94;99327.08;1732950;83;21208;-80
2022/07/22 01:16:43;;;;;;;6.75;4.03;;;;;;;17.74;94.18;99337.59;1733115;81;21180;-79
2022/07/22 01:19:43;;;;;;;5.75;4.70;;;;;;;17.71;94.35;99331.69;1733309;81;21677;-79
2022/07/22 01:22:35;;;;;;;6.45;4.35;;;;;;;17.69;94.80;99324.16;1733461;83;21172;-80
2022/07/22 01:25:41;;;;;;;5.62;4.12;;;;;;;17.62;95.14;99329.30;1732708;81;21224;-79
2022/07/22 01:28:47;;;;;;;7.47;4.10;;;;;;;17.55;95.52;99328.62;1731592;83;21168;-80
2022/07/22 01:31:54;;;;;;;7.10;4.00;;;;;;;17.51;95.83;99326.59;1732204;83;21212;-80
2022/07/22 01:35:00;;;;;;;5.10;4.22;;;;;;;17.46;96.18;99332.86;1732211;81;21749;-80
2022/07/22 01:38:07;;;;;;;7.60;4.12;;;;;;;17.42;96.74;99333.59;1733372;83;21144;-80
2022/07/22 01:41:14;;;;;;;8.00;4.35;;;;;;;17.37;97.17;99328.80;1732443;81;21212;-80
2022/07/22 01:44:20;;;;;;;5.97;4.90;;;;;;;17.35;97.84;99336.47;1732498;83;21730;-80
2022/07/22 01:47:25;;;;;;;8.53;4.10;;;;;;;17.31;98.47;99334.76;1733326;83;21184;-81
2022/07/22 01:50:31;;;;;;;7.00;4.60;;;;;;;17.28;99.08;99336.62;1732928;81;21206;-80
2022/07/22 01:53:37;;;;;;;6.30;4.47;;;;;;;17.23;99.92;99337.89;1733265;83;21263;-80
2022/07/22 01:56:43;;;;;;;6.97;4.65;;;;;;;17.18;100.00;99335.02;1732049;81;21582;-80
2022/07/22 01:59:48;;;;;;;9.45;4.80;;;;;;;17.15;100.00;99337.42;1733129;81;21184;-80
2022/07/22 02:02:54;;;;;;;6.12;4.75;;;;;;;17.09;100.00;99338.70;1747006;81;21200;-80
2022/07/22 02:05:59;;;;;;;6.83;4.50;;;;;;;17.05;100.00;99333.35;1749145;80;21240;-80
2022/07/22 02:09:07;;;;;;;4.60;4.05;;;;;;;17.02;100.00;99337.97;1749895;82;21216;-80
2022/07/22 02:12:16;;;;;;;6.35;4.47;;;;;;;16.96;100.00;99334.80;1750043;82;21204;-80
2022/07/22 02:15:22;;;;;;;8.95;4.55;;;;;;;16.92;100.00;99340.50;1748856;80;21208;-80
2022/07/22 02:18:27;;;;;;;8.25;4.40;;;;;;;16.87;100.00;99344.53;1750057;82;21212;-79
2022/07/22 02:21:26;;;;;;;8.58;4.50;;;;;;;16.83;100.00;99350.23;1748891;80;21203;-79
2022/07/22 02:24:19;;;;;;;6.75;4.45;;;;;;;16.79;100.00;99349.86;1748421;80;21196;-79
2022/07/22 02:27:23;;;;;;;6.60;3.92;;;;;;;16.81;100.00;99345.50;1750016;82;21738;-80
2022/07/22 02:30:30;;;;;;;11.22;5.15;;;;;;;16.96;100.00;99343.09;1749363;80;21267;-80
2022/07/22 02:33:35;;;;;;;7.87;5.03;;;;;;;17.26;100.00;99341.53;1749850;82;21750;-80
2022/07/22 02:36:40;;;;;;;9.13;4.40;;;;;;;17.57;100.00;99344.41;1749879;80;21203;-80
2022/07/22 02:39:46;;;;;;;9.10;4.03;;;;;;;17.86;100.00;99354.13;1749865;81;21633;-81
2022/07/22 02:42:52;;;;;;;5.10;3.67;;;;;;;18.14;98.18;99350.51;1749971;82;21156;-80
2022/07/22 02:45:59;;;;;;;7.30;3.70;;;;;;;18.40;95.78;99360.12;1748889;80;21642;-80
2022/07/22 02:48:59;;;;;;;6.58;4.05;;;;;;;18.67;93.70;99364.98;1750095;82;21740;-80
2022/07/22 02:52:04;;;;;;;4.35;3.83;;;;;;;18.64;91.57;99365.78;1749914;82;21200;-80
2022/07/22 02:55:13;;;;;;;6.35;4.33;;;;;;;18.39;91.69;99368.11;1749291;80;21771;-80
2022/07/22 02:58:18;;;;;;;9.00;3.90;;;;;;;18.09;93.15;99369.24;1750030;82;21753;-80
2022/07/22 03:01:27;;;;;;;5.33;4.00;;;;;;;17.85;94.95;99367.67;1749889;80;21797;-80
2022/07/22 03:04:33;;;;;;;6.17;3.83;;;;;;;17.67;96.73;99362.29;1749852;80;21184;-80
2022/07/22 03:07:39;;;;;;;5.65;3.87;;;;;;;17.55;98.47;99360.41;1748459;82;21175;-80
2022/07/22 03:10:46;;;;;;;6.50;4.60;;;;;;;17.47;99.89;99360.79;1748582;80;21223;-79
2022/07/22 03:13:45;;;;;;;10.08;4.03;;;;;;;17.52;100.00;99351.77;1750194;82;21690;-80
2022/07/22 03:16:51;;;;;;;7.22;4.05;;;;;;;17.75;100.00;99356.41;1749897;82;21178;-80
2022/07/22 03:19:59;;;;;;;5.10;3.72;;;;;;;18.08;98.45;99356.50;1749751;80;21200;-80
2022/07/22 03:23:05;;;;;;;8.85;3.85;;;;;;;18.38;96.20;99360.89;1748459;82;21149;-81
2022/07/22 03:26:13;;;;;;;6.20;4.28;;;;;;;18.65;94.34;99357.77;1748779;80;21236;-80
2022/07/22 03:29:18;;;;;;;7.33;4.28;;;;;;;18.72;92.17;99362.31;1750021;82;21169;-80
2022/07/22 03:32:24;;;;;;;6.95;4.10;;;;;;;18.55;92.09;99364.52;1749786;82;21204;-80
2022/07/22 03:35:30;;;;;;;5.72;3.85;;;;;;;18.38;92.98;99363.66;1749340;80;21190;-80
2022/07/22 03:38:37;;;;;;;14.35;4.47;;;;;;;18.43;93.64;99361.53;1749842;82;21697;-79
2022/07/22 03:41:43;;;;;;;4.42;3.15;;;;;;;18.66;93.38;99361.37;1748526;80;21739;-79
2022/07/22 03:44:50;;;;;;;6.08;4.00;;;;;;;19.00;91.94;99364.97;1749777;80;21200;-79
2022/07/22 03:47:57;;;;;;;8.08;3.80;;;;;;;19.19;89.75;99360.53;1749611;82;21817;-80
2022/07/22 03:51:06;;;;;;;4.93;4.07;;;;;;;19.28;88.23;99350.12;1749170;80;21271;-80
2022/07/22 03:54:11;;;;;;;5.92;3.62;;;;;;;19.24;88.25;99353.12;1748401;82;21176;-81
2022/07/22 03:57:19;;;;;;;7.67;3.80;;;;;;;19.18;88.49;99354.16;1748454;82;21176;-80
2022/07/22 04:00:27;;;;;;;6.03;3.70;;;;;;;19.11;88.84;99357.12;1748529;80;21232;-80
2022/07/22 04:03:34;;;;;;;7.12;4.00;;;;;;;18.92;89.62;99370.13;1745097;81;21753;-80
2022/07/22 04:06:51;;;;;;;10.70;4.28;;;;;;;18.71;90.98;99367.02;1731966;81;21192;-80
2022/07/22 04:10:04;;;;;;;7.47;3.45;;;;;;;18.59;92.45;99369.86;1733137;81;21240;-81
2022/07/22 04:13:07;;;;;;;7.08;3.80;;;;;;;18.49;93.17;99378.00;1732016;83;21176;-80
2022/07/22 04:16:16;;;;;;;6.20;3.95;;;;;;;18.36;94.01;99378.31;1732230;81;21203;-81
2022/07/22 04:19:24;;;;;;;5.90;3.92;;;;;;;18.30;95.02;99379.29;1732270;83;21208;-80
2022/07/22 04:22:32;;;;;;;10.75;4.60;;;;;;;18.27;95.55;99377.88;1733024;83;21208;-80
2022/07/22 04:25:38;;;;;;;5.47;4.80;;;;;;;18.29;96.10;99388.14;1732609;81;21180;-80
2022/07/22 04:28:45;;;;;;;6.92;4.83;;;;;;;18.33;95.87;99379.64;1733164;83;21697;-81
2022/07/22 04:31:53;;;;;;;9.75;5.45;;;;;;;18.43;95.21;99392.82;1733317;83;21173;-80
2022/07/22 04:35:00;;;;;;;8.73;5.87;;;;;;;18.52;95.09;99398.80;1733112;81;21530;-80
2022/07/22 04:38:07;;;;;;;9.58;5.90;;;;;;;18.57;94.90;99383.09;1733100;83;21200;-80
2022/07/22 04:41:18;;;;;;;13.30;6.45;;;;;;;18.60;94.97;99396.45;1733498;81;21204;-80
2022/07/22 04:44:23;;;;;;;15.80;7.22;;;;;;;18.58;94.29;99401.42;1733460;83;21208;-80
2022/07/22 04:47:29;;;;;;;8.73;7.15;;;;;;;18.50;94.56;99397.67;1732438;83;21204;-80
2022/07/22 04:50:36;;;;;;;11.22;8.35;;;;;;;18.39;95.00;99403.55;1731769;81;21220;-80
2022/07/22 04:53:42;;;;;;;12.73;7.97;;;;;;;18.30;95.58;99395.90;1733065;83;21192;-80
2022/07/22 04:56:49;;;;;;;18.10;9.18;;;;;;;18.21;96.09;99407.95;1732025;81;21219;-80
2022/07/22 04:59:55;;;;;;;20.40;8.78;;;;;;;18.13;97.02;99417.47;1733194;81;21800;-80
2022/07/22 05:03:04;;;;;;;11.73;10.28;;;;;;;18.09;97.24;99406.59;1733470;83;21180;-80
2022/07/22 05:06:10;;;;;;;15.65;10.10;;;;;;;18.11;97.94;99412.74;1732068;81;21184;-80
2022/07/22 05:09:16;;;;;;;12.60;8.80;;;;;;;18.16;97.72;99418.05;1729619;83;21176;-81
2022/07/22 05:12:22;;;;;;;10.10;8.45;;;;;;;18.25;97.76;99420.17;1702805;84;21173;-81
2022/07/22 05:15:29;;;;;;;14.33;9.00;;;;;;;18.36;96.88;99419.84;1702693;84;21680;-81
2022/07/22 05:18:35;;;;;;;13.05;8.75;;;;;;;18.48;96.33;99421.98;1701426;84;21184;-81
2022/07/22 05:21:42;;;;;;;15.32;8.45;;;;;;;18.59;95.98;99424.41;1701301;84;21211;-81
2022/07/22 05:33:59;;;;;;;9.63;7.00;;;;;;;18.62;94.84;99435.80;1702927;84;21790;-80
2022/07/22 05:37:08;;;;;;;13.32;6.62;;;;;;;18.60;94.69;99441.31;1700950;83;21242;-80
2022/07/22 05:40:15;;;;;;;7.30;5.95;;;;;;;18.58;94.28;99449.88;1699235;83;21224;-80
2022/07/22 05:43:20;;;;;;;11.55;5.92;;;;;;;18.59;93.31;99454.88;1699701;84;21460;-81
2022/07/22 05:46:27;;;;;;;8.90;6.00;;;;;;;18.57;93.51;99454.27;1698475;83;21515;-81
2022/07/22 05:49:33;;;;;;;7.05;5.87;;;;;;;18.56;93.56;99456.20;1698313;83;21760;-81
2022/07/22 05:52:42;;;;;;;8.45;5.55;;;;;;;18.54;92.94;99459.77;1699548;84;21176;-80
2022/07/22 05:55:48;;;;;;;6.90;4.80;;;;;;;18.52;92.96;99454.17;1718275;81;21180;-80
2022/07/22 05:58:56;;;;;;;8.05;5.12;;;;;;;18.52;91.97;99460.55;1729330;83;21168;-80
2022/07/22 06:02:02;;;;;;;13.25;5.58;;;;;;;18.57;90.61;99462.02;1737720;81;21156;-80
2022/07/22 06:05:09;;;;;;;8.60;4.97;;;;;;;18.74;90.60;99465.41;1760690;80;21738;-80
2022/07/22 06:08:17;;;;;;;6.83;4.92;;;;;;;18.88;90.27;99465.38;1747279;81;21646;-80
2022/07/22 06:11:23;;;;;;;6.83;5.22;;;;;;;19.00;88.73;99466.13;1746961;81;21279;-80
2022/07/22 06:14:30;;;;;;;13.32;4.87;;;;;;;19.13;86.26;99464.41;1747912;81;21205;-80
2022/07/22 06:17:37;;;;;;;12.18;5.28;;;;;;;19.26;85.63;99473.48;1747339;82;21192;-80
2022/07/22 06:20:43;;;;;;;7.95;5.72;;;;;;;19.36;84.47;99471.69;1734076;81;21741;-80
2022/07/22 06:23:49;;;;;;;6.30;4.45;;;;;;;19.46;84.00;99471.00;1719923;83;21184;-80
2022/07/22 06:26:56;;;;;;;7.15;5.10;;;;;;;19.55;83.23;99476.41;1720135;83;21217;-79
2022/07/22 06:30:03;;;;;;;8.73;4.30;;;;;;;19.64;81.57;99465.75;1722018;82;21219;-80
2022/07/22 06:33:08;;;;;;;3.95;3.55;;;;;;;19.86;80.82;99461.62;1717496;83;21177;-80
2022/07/22 06:36:17;;;;;;;5.97;4.25;;;;;;;20.15;77.60;99470.03;1711985;82;21179;-81
2022/07/22 06:39:23;;;;;;;5.95;4.28;;;;;;;20.31;75.38;99471.03;1720499;82;21153;-80
2022/07/22 06:42:40;;;;;;;6.35;4.10;;;;;;;20.38;75.15;99463.91;1711792;82;21223;-81
2022/07/22 06:45:48;;;;;;;7.30;4.25;;;;;;;20.46;74.14;99462.02;1711792;82;21245;-80
2022/07/22 06:48:56;;;;;;;5.55;3.50;;;;;;;20.62;74.27;99468.63;1716545;82;21214;-80
2022/07/22 06:52:02;;;;;;;4.53;3.37;;;;;;;20.75;72.36;99462.65;1726495;82;21243;-80
2022/07/22 06:55:08;;;;;;;6.72;3.72;;;;;;;20.75;70.98;99468.20;1719730;82;21216;-79
2022/07/22 06:58:17;;;;;;;7.28;3.70;;;;;;;20.82;70.66;99476.31;1726091;82;21172;-78
2022/07/22 07:01:24;;;;;;;8.15;3.15;;;;;;;20.98;68.99;99467.00;1721047;80;21184;-79
2022/07/22 07:04:29;;;;;;;4.80;3.45;;;;;;;21.11;69.67;99472.67;1732308;81;21705;-80
2022/07/22 07:07:28;;;;;;;;;;;;;;;21.10;66.96;99470.45;1755578;81;21259;-81
2022/07/22 07:10:36;;;;;;;6.33;3.33;;;;;;;21.11;67.59;99477.67;1760216;80;20225;-79
2022/07/22 07:13:41;;;;;;;11.90;3.20;;;;;;;21.28;68.81;99476.70;1755334;81;21697;-80
2022/07/22 07:16:48;;;;;;;3.77;2.83;;;;;;;21.63;66.27;99472.79;1729423;81;21176;-80
2022/07/22 07:19:55;;;;;;;6.08;3.50;;;;;;;21.93;64.95;99469.91;1727666;81;21272;-80
2022/07/22 07:23:02;;;;;;;5.08;3.45;;;;;;;21.90;64.42;99476.00;1726590;83;21247;-81
2022/07/22 07:26:09;;;;;;;4.92;3.15;;;;;;;21.69;65.24;99471.73;1722386;81;21223;-81
2022/07/22 07:29:15;;;;;;;5.08;3.15;;;;;;;21.54;66.22;99468.84;1698722;84;21236;-80
2022/07/22 07:32:22;;;;;;;3.55;2.80;;;;;;;21.53;65.46;99468.56;1700008;84;21212;-80
2022/07/22 07:35:29;;;;;;;4.55;2.72;;;;;;;21.62;64.34;99475.30;1700795;83;21786;-80
2022/07/22 07:38:35;;;;;;;7.35;3.02;;;;;;;21.84;63.07;99472.36;1700503;84;21595;-81
2022/07/22 07:41:41;;;;;;;9.33;4.20;;;;;;;22.06;64.12;99474.12;1707574;82;21131;-81
2022/07/22 07:44:49;;;;;;;9.30;4.20;;;;;;;22.01;63.76;99474.94;1728798;81;21176;-81
2022/07/22 07:47:54;;;;;;;9.45;3.30;;;;;;;21.84;63.24;99473.75;1732432;82;21236;-80
2022/07/22 07:50:59;;;;;;;4.47;3.60;;;;;;;21.89;62.97;99481.30;1727218;81;21196;-81
2022/07/22 07:54:06;;;;;;;5.80;4.10;;;;;;;22.10;63.39;99471.91;1723839;82;21229;-81
2022/07/22 07:57:13;;;;;;;14.50;5.08;;;;;;;22.32;62.45;99482.06;1731584;82;21151;-80
2022/07/22 08:00:20;;;;;;;12.35;4.80;;;;;;;22.22;62.79;99483.42;1722677;81;21208;-80
2022/07/22 08:03:26;;;;;;;12.85;4.60;;;;;;;22.06;62.87;99491.66;1730251;83;21195;-80
2022/07/22 08:06:33;;;;;;;8.80;3.83;;;;;;;22.07;63.23;99485.56;1730360;81;21780;-80
2022/07/22 08:09:40;;;;;;;6.58;3.33;;;;;;;22.25;61.84;99494.00;1694412;83;21185;-79
2022/07/22 08:12:48;;;;;;;4.50;2.90;;;;;;;22.39;60.17;99484.02;1673146;85;21192;-80
2022/07/22 08:15:53;;;;;;;2.30;2.10;;;;;;;22.51;58.09;99487.97;1671643;84;21667;-80
2022/07/22 08:18:59;;;;;;;4.28;3.08;;;;;;;22.58;58.16;99489.36;1701109;84;21224;-80
2022/07/22 08:22:06;;;;;;;6.30;3.15;;;;;;;22.66;60.24;99484.65;1704249;83;21272;-80
2022/07/22 08:25:12;;;;;;;10.03;4.00;;;;;;;22.74;59.24;99497.78;1699874;83;21200;-81
2022/07/22 08:28:20;;;;;;;4.67;2.98;;;;;;;22.76;59.12;99495.54;1700057;84;21177;-81
2022/07/22 08:31:26;;;;;;;3.87;2.70;;;;;;;22.75;57.85;99496.09;1696079;83;21212;-81
2022/07/22 08:34:34;;;;;;;5.55;3.27;;;;;;;22.81;57.37;99494.98;1693021;84;21705;-80
2022/07/22 08:37:40;;;;;;;6.00;4.05;;;;;;;22.88;57.53;99493.34;1704652;84;21796;-80
2022/07/22 08:40:48;;;;;;;4.70;3.10;;;;;;;22.77;57.45;99495.25;1700363;83;21188;-80
2022/07/22 08:43:56;;;;;;;4.27;2.70;;;;;;;22.68;59.08;99494.98;1688100;84;21203;-80
2022/07/22 08:47:03;;;;;;;4.75;2.72;;;;;;;22.68;58.66;99493.59;1692186;84;21172;-80
2022/07/22 08:50:18;;;;;;;3.85;3.20;;;;;;;22.64;57.31;99506.40;1664024;84;21192;-81
2022/07/22 08:53:35;;;;;;;6.80;3.35;;;;;;;22.68;55.31;99505.30;1686356;84;21185;-80
2022/07/22 08:56:42;;;;;;;10.08;3.67;;;;;;;22.81;55.78;99515.06;1696516;84;21209;-80
2022/07/22 09:00:03;;;;;;;7.53;2.60;;;;;;;22.95;56.44;99503.67;1704722;83;21208;-80
2022/07/22 09:03:27;;;;;;;4.55;2.67;;;;;;;23.02;57.14;99504.26;1704051;84;21164;-80
2022/07/22 09:06:35;;;;;;;3.47;2.30;;;;;;;23.06;54.84;99492.00;1688172;84;21267;-80
2022/07/22 09:09:40;;;;;;;10.13;2.22;;;;;;;23.26;56.03;99510.12;1703626;83;21212;-80
2022/07/22 09:13:05;;;;;;;3.67;2.12;;;;;;;23.28;55.65;99520.43;1676545;84;21230;-80
2022/07/22 09:16:14;;;;;;;3.33;1.82;;;;;;;23.16;54.34;99513.75;1677058;84;21219;-80
2022/07/22 09:19:22;;;;;;;;;;;;;;;23.09;54.64;99510.38;1674776;85;21202;-81
2022/07/22 09:22:50;;;;;;;3.47;1.50;;;;;;;23.16;55.29;99508.17;1676949;85;20197;-80
2022/07/22 09:25:57;;;;;;;5.42;1.55;;;;;;;23.23;52.85;99511.23;1676858;84;21230;-80
2022/07/22 09:29:10;;;;;;;3.83;1.70;;;;;;;23.23;54.07;99507.88;1675103;85;21167;-80
2022/07/22 09:32:29;;;;;;;4.97;1.70;;;;;;;23.23;54.20;99524.61;1677178;85;21159;-81
2022/07/22 09:35:48;;;;;;;;;;;;;;;23.13;54.68;99517.64;1677285;84;21235;-81
2022/07/22 09:38:52;;;;;;;4.55;2.00;;;;;;;23.02;51.78;99525.17;1683857;83;20592;-81
2022/07/22 09:42:09;;;;;;;2.77;1.80;;;;;;;22.96;52.96;99509.56;1698809;84;21156;-80
2022/07/22 09:45:16;;;;;;;3.62;2.10;;;;;;;23.01;54.68;99503.98;1689400;83;21222;-80
2022/07/22 09:48:25;;;;;;;5.10;1.52;;;;;;;23.23;54.71;99508.44;1703634;84;21171;-80
2022/07/22 09:51:39;;;;;;;4.78;1.60;;;;;;;23.36;51.03;99519.88;1751601;81;21214;-79
2022/07/22 09:54:46;;;;;;;3.15;1.90;;;;;;;23.30;51.28;99513.20;1740140;81;21578;-80
2022/07/22 09:57:52;;;;;;;7.37;2.00;;;;;;;23.27;53.09;99504.81;1724452;83;21167;-80
2022/07/22 10:00:59;;;;;;;3.05;1.80;;;;;;;23.38;52.60;99523.77;1744350;81;21207;-80
2022/07/22 10:04:06;;;;;;;1.70;1.60;;;;;;;23.39;52.73;99513.75;1732548;81;21163;-80
2022/07/22 10:07:14;;;;;;;4.50;1.90;;;;;;;23.48;52.49;99509.84;1723635;82;21772;-81
2022/07/22 10:10:23;;;;;;;4.28;1.65;;;;;;;23.64;52.59;99512.07;1684753;85;21201;-80
2022/07/22 10:13:28;;;;;;;1.70;1.47;;;;;;;23.59;51.65;99517.07;1734704;82;21155;-80
2022/07/22 10:16:34;;;;;;;1.67;1.27;;;;;;;23.49;52.54;99521.27;1733675;82;21604;-81
2022/07/22 10:19:40;;;;;;;2.60;1.45;;;;;;;23.48;50.80;99514.03;1736673;82;21171;-80
2022/07/22 10:22:54;;;;;;;2.05;1.60;;;;;;;23.55;51.59;99518.75;1737356;82;21139;-81
2022/07/22 10:26:04;;;;;;;2.87;1.50;;;;;;;23.62;50.68;99517.05;1706372;83;21143;-81
2022/07/22 10:29:35;;;;;;;1.67;1.20;;;;;;;23.56;50.79;99521.81;1737787;82;21716;-81
2022/07/22 10:32:41;;;;;;;2.45;1.82;;;;;;;23.54;51.00;99522.66;1729246;82;21752;-81
2022/07/22 10:36:08;;;;;;;2.80;1.42;;;;;;;23.43;51.12;99516.27;1734287;82;21199;-81
2022/07/22 10:39:17;;;;;;;2.25;1.50;;;;;;;23.30;49.90;99528.54;1707488;83;21147;-81
2022/07/22 10:42:23;;;;;;;4.95;1.30;;;;;;;23.37;50.72;99527.69;1730637;82;21139;-81
2022/07/22 10:45:29;;;;;;;3.72;1.52;;;;;;;23.57;50.35;99515.13;1731866;82;21203;-81
2022/07/22 10:48:48;;;;;;;1.80;1.40;;;;;;;23.74;47.73;99535.78;1717389;82;21143;-81
2022/07/22 10:52:22;;;;;;;2.22;1.37;;;;;;;23.78;49.51;99526.28;1732081;82;21159;-80
2022/07/22 10:55:28;;;;;;;7.70;1.37;;;;;;;23.81;49.10;99529.92;1737659;82;21167;-81
2022/07/22 10:58:51;;;;;;;3.45;1.42;;;;;;;24.01;48.51;99537.41;1735320;82;21123;-81
2022/07/22 11:01:59;;;;;;;2.22;1.42;;;;;;;24.10;49.02;99535.14;1740577;82;21179;-82
2022/07/22 11:05:06;;;;;;;3.12;1.62;;;;;;;24.20;47.47;99539.30;1742662;82;21159;-81
2022/07/22 11:08:18;;;;;;;3.87;1.57;;;;;;;24.25;47.78;99518.88;1698307;83;21215;-81
2022/07/22 11:11:24;;;;;;;2.35;1.20;;;;;;;24.32;47.42;99534.77;1693585;84;21202;-81
2022/07/22 11:14:37;;;;;;;2.70;1.05;;;;;;;24.33;46.09;99540.66;1678185;85;21299;-81
2022/07/22 11:17:37;;;;;;;2.87;0.93;;;;;;;24.30;46.07;99541.21;1677574;85;21151;-80
2022/07/22 11:20:44;;;;;;;2.05;1.15;;;;;;;24.23;45.62;99542.92;1686280;85;21685;-81
2022/07/22 11:23:49;;;;;;;1.37;1.15;;;;;;;24.19;46.08;99543.78;1664732;86;21182;-80
2022/07/22 11:26:58;;;;;;;3.98;1.27;;;;;;;24.16;47.09;99535.95;1689259;85;21769;-81
2022/07/22 11:30:06;;;;;;;2.80;1.20;;;;;;;24.18;47.80;99524.78;1660189;86;21231;-81
2022/07/22 11:33:11;;;;;;;2.35;1.20;;;;;;;24.30;46.94;99530.59;1677206;85;21249;-80
2022/07/22 11:36:18;;;;;;;3.12;1.20;;;;;;;24.37;46.79;99523.63;1689349;85;21235;-81
2022/07/22 11:39:26;;;;;;;2.98;1.10;;;;;;;24.46;45.02;99540.61;1664216;85;21148;-78
2022/07/22 11:42:35;;;;;;;2.45;0.93;;;;;;;24.52;45.01;99533.89;1673523;85;21160;-78
2022/07/22 11:45:43;;;;;;;2.27;1.02;;;;;;;24.51;44.87;99519.61;1703518;84;21201;-78
2022/07/22 11:48:50;;;;;;;4.45;1.52;;;;;;;24.56;44.84;99508.44;1688278;85;21148;-80
2022/07/22 11:51:56;;;;;;;1.47;0.93;;;;;;;24.58;45.06;99524.34;1691663;84;21258;-80
2022/07/22 11:55:01;;;;;;;5.65;1.22;;;;;;;24.54;45.34;99533.03;1751172;82;21186;-80
2022/07/22 11:58:07;;;;;;;2.37;1.40;;;;;;;24.52;45.34;99524.67;1747127;82;21148;-79
2022/07/22 12:01:15;;;;;;;1.45;0.93;;;;;;;24.57;46.50;99515.69;1750498;82;21195;-80
2022/07/22 12:04:25;;;;;;;3.37;1.30;;;;;;;24.69;45.47;99517.56;1722837;83;21135;-79
2022/07/22 12:07:30;;;;;;;3.12;1.42;;;;;;;24.72;46.09;99521.75;1691052;85;21223;-79
2022/07/22 12:10:37;;;;;;;5.72;1.42;;;;;;;24.59;45.92;99523.78;1734434;82;21178;-80
2022/07/22 12:13:43;;;;;;;5.17;1.52;;;;;;;24.45;46.04;99524.97;1763387;80;22048;-80
2022/07/22 12:16:50;;;;;;;1.52;1.15;;;;;;;24.35;47.85;99537.56;1760644;80;21171;-80
2022/07/22 12:19:56;;;;;;;1.95;1.00;;;;;;;24.37;48.17;99523.63;1732536;81;21235;-80
2022/07/22 12:23:02;;;;;;;4.95;1.20;;;;;;;24.54;46.46;99508.44;1769366;80;21175;-80
2022/07/22 12:26:09;;;;;;;1.92;1.15;;;;;;;24.82;41.84;99496.52;1737948;80;21246;-80
2022/07/22 12:29:33;;;;;;;3.02;1.10;;;;;;;25.03;42.67;99517.34;1724794;82;21156;-80
2022/07/22 12:32:39;;;;;;;1.15;0.93;;;;;;;25.14;42.21;99501.63;1759062;80;21230;-80
2022/07/22 12:35:47;;;;;;;1.65;1.12;;;;;;;25.18;42.59;99513.92;1746080;82;21218;-80
2022/07/22 12:38:52;;;;;;;1.60;1.02;;;;;;;25.08;43.95;99523.80;1731381;82;21191;-80
2022/07/22 12:42:01;;;;;;;6.90;1.15;;;;;;;24.90;44.29;99517.45;1721560;82;21143;-80
2022/07/22 12:45:18;;;;;;;2.00;1.05;;;;;;;24.77;44.83;99519.48;1749903;82;21194;-80
2022/07/22 12:48:22;;;;;;;7.08;1.50;;;;;;;24.74;44.74;99522.29;1749486;80;21164;-80
2022/07/22 12:51:27;;;;;;;4.15;0.93;;;;;;;24.66;43.58;99526.55;1746678;80;21187;-80
2022/07/22 12:54:33;;;;;;;3.00;1.00;;;;;;;24.52;43.78;99521.31;1709402;82;21232;-81
2022/07/22 12:57:39;;;;;;;1.98;0.90;;;;;;;24.42;43.07;99514.38;1717986;82;21164;-80
2022/07/22 13:00:47;;;;;;;0.98;0.88;;;;;;;24.46;43.22;99518.25;1719573;82;22130;-80
2022/07/22 13:03:51;;;;;;;4.20;1.80;;;;;;;24.69;43.78;99520.36;1683028;84;21749;-80
2022/07/22 13:07:01;;;;;;;1.35;1.10;;;;;;;24.92;42.84;99510.42;1705526;82;22244;-81
2022/07/22 13:10:07;;;;;;;5.08;1.35;;;;;;;24.99;43.31;99527.73;1703313;84;21227;-80
2022/07/22 13:13:13;;;;;;;2.87;1.50;;;;;;;24.91;44.20;99518.55;1701583;84;21251;-80
2022/07/22 13:16:19;;;;;;;3.12;1.50;;;;;;;24.85;45.05;99525.88;1701513;84;21607;-81
2022/07/22 13:19:26;;;;;;;5.45;1.37;;;;;;;24.82;44.84;99526.45;1702773;84;21192;-81
2022/07/22 13:22:32;;;;;;;3.70;1.20;;;;;;;24.77;43.54;99529.28;1733318;82;21797;-81
2022/07/22 13:25:39;;;;;;;2.83;1.00;;;;;;;24.72;45.04;99526.78;1734627;82;21245;-81
2022/07/22 13:28:46;;;;;;;2.77;1.02;;;;;;;24.68;44.79;99527.08;1731075;82;21763;-80
2022/07/22 13:31:52;;;;;;;6.33;0.90;;;;;;;24.63;44.18;99530.47;1719034;82;21754;-80
2022/07/22 13:34:58;;;;;;;2.67;1.27;;;;;;;24.59;45.12;99522.38;1734071;81;21795;-79
2022/07/22 13:38:05;;;;;;;2.87;1.15;;;;;;;24.51;45.26;99527.17;1735100;82;21194;-80
2022/07/22 13:41:16;;;;;;;8.70;1.30;;;;;;;24.35;45.82;99525.82;1736322;82;21242;-79
2022/07/22 13:44:20;;;;;;;2.87;1.20;;;;;;;24.21;46.70;99528.95;1737049;82;21167;-80
2022/07/22 13:47:26;;;;;;;3.25;1.17;;;;;;;24.09;46.90;99543.78;1736725;82;21210;-80
2022/07/22 13:50:32;;;;;;;2.20;1.30;;;;;;;23.98;47.82;99554.99;1736472;82;21194;-80
2022/07/22 13:53:38;;;;;;;1.77;1.62;;;;;;;23.85;48.15;99553.34;1736523;82;21219;-80
2022/07/22 13:56:47;;;;;;;11.40;1.20;;;;;;;23.76;48.61;99564.80;1736763;81;21210;-80
2022/07/22 13:59:53;;;;;;;3.05;1.30;;;;;;;23.82;49.58;99546.95;1736739;82;21743;-80
2022/07/22 14:02:59;;;;;;;2.67;1.40;;;;;;;24.04;48.88;99546.03;1735937;82;21198;-80
2022/07/22 14:06:05;;;;;;;2.72;1.30;;;;;;;24.21;47.81;99547.95;1736106;82;21222;-80
2022/07/22 14:09:11;;;;;;;2.50;1.27;;;;;;;24.25;46.96;99555.77;1736180;82;21202;-80
2022/07/22 14:12:18;;;;;;;2.30;1.20;;;;;;;24.14;47.34;99554.41;1736042;81;21179;-81
2022/07/22 14:15:24;;;;;;;3.17;1.20;;;;;;;24.04;47.61;99564.75;1736189;82;21186;-80
2022/07/22 14:18:29;;;;;;;5.53;1.65;;;;;;;23.90;47.48;99560.31;1737380;82;21194;-80
2022/07/22 14:21:36;;;;;;;3.67;1.22;;;;;;;23.78;47.89;99561.19;1736053;82;21202;-80
2022/07/22 14:24:42;;;;;;;2.72;1.70;;;;;;;23.69;48.75;99561.75;1735918;82;21147;-81
2022/07/22 14:27:48;;;;;;;4.35;1.20;;;;;;;23.60;50.24;99570.94;1737323;82;21167;-80
2022/07/22 14:30:54;;;;;;;3.35;1.30;;;;;;;23.46;50.99;99574.28;1736266;81;21190;-80
2022/07/22 14:34:02;;;;;;;5.03;1.30;;;;;;;23.33;51.58;99565.63;1737085;82;21185;-80
2022/07/22 14:37:08;;;;;;;6.75;1.62;;;;;;;23.21;52.09;99570.09;1737335;82;21163;-81
2022/07/22 14:40:17;;;;;;;1.98;1.30;;;;;;;23.10;54.00;99572.05;1736915;82;21202;-80
2022/07/22 14:43:23;;;;;;;2.60;1.32;;;;;;;22.90;55.83;99581.19;1737051;82;21186;-79
2022/07/22 14:46:30;;;;;;;5.47;1.65;;;;;;;22.66;56.70;99576.63;1735715;82;21249;-80
2022/07/22 14:49:36;;;;;;;6.90;1.52;;;;;;;22.41;59.31;99587.13;1737018;82;21691;-81